Kokomo — WDB6285 — position and weather

sailwx.info

Track history (hours):
 
Tides and Currents Weather Stations Pressure Air Temp Water Temp Dewpoint Dewpoint Depression Visibility Wind Speed Wind Dir Waves Ship Positions

Kokomo

Owner: benson mr, marvin l, del mar, CA. More information available from US FCC via Universal Licensing System.

Last reported at 2017-Oct-14 10:47 UTC. Time now 2017-Oct-20 17:39 UTC.
Position N 30°27' W 091°12'.

Length 28 m; draft 3.1 m.

Type: . MMSI: 366921420.

Date/timePositionNaut miles runAvg speedWind from/ knotsBaromVisibWave heightAir tempDewpointWater temp
2017-Oct-14 10:47N 30°27' W 091°12'0 0.0
2017-Oct-14 10:30N 30°27' W 091°12'0 0.0
2017-Oct-14 09:43N 30°27' W 091°12'0 0.0
2017-Oct-14 09:30N 30°27' W 091°12'0 0.0
2017-Oct-14 08:48N 30°27' W 091°12'  
2017-Oct-09 00:51N 29°49' W 092°02'2 5.5
2017-Oct-09 00:30N 29°48' W 092°04'3 5.6
2017-Oct-09 00:00N 29°47' W 092°07'3 5.4
2017-Oct-08 23:30N 29°47' W 092°10'2 4.0
2017-Oct-08 23:00N 29°47' W 092°12'2 3.4
2017-Oct-08 22:30N 29°48' W 092°14'2 3.8
2017-Oct-08 22:00N 29°49' W 092°16'2 4.9
2017-Oct-08 21:30N 29°50' W 092°18'2 3.2
2017-Oct-08 21:00N 29°51' W 092°20'1 0.1
2017-Oct-08 12:37N 29°51' W 092°21'1 5.2
2017-Oct-08 12:21N 29°50' W 092°19'1 4.2
2017-Oct-08 12:00N 29°50' W 092°18'2 3.8
2017-Oct-08 11:30N 29°49' W 092°16'3 5.2
2017-Oct-08 11:00N 29°48' W 092°13'1 1.9
2017-Oct-08 10:30N 29°47' W 092°12'2 3.1
2017-Oct-08 10:00N 29°47' W 092°11'2 4.2
2017-Oct-08 09:30N 29°47' W 092°08'3 6.1
2017-Oct-08 09:00N 29°48' W 092°05'  
Track history (hours):
 
Tides and Currents Weather Stations Pressure Air Temp Water Temp Dewpoint Dewpoint Depression Visibility Wind Speed Wind Dir Waves Ship Positions

Kokomo

Owner: benson mr, marvin l, del mar, CA. More information available from US FCC via Universal Licensing System.

Last reported at 2017-Oct-14 10:47 UTC. Time now 2017-Oct-20 17:39 UTC.
Position N 30°27' W 091°12'.

Length 28 m; draft 3.1 m.

Type: . MMSI: 366921420.

Date/timePositionNaut miles runAvg speedWind from/ knotsBaromVisibWave heightAir tempDewpointWater temp
2017-Oct-14 10:47N 30°27' W 091°12'0 0.0
2017-Oct-14 10:30N 30°27' W 091°12'0 0.0
2017-Oct-14 09:43N 30°27' W 091°12'0 0.0
2017-Oct-14 09:30N 30°27' W 091°12'0 0.0
2017-Oct-14 08:48N 30°27' W 091°12'  
2017-Oct-09 00:51N 29°49' W 092°02'2 5.5
2017-Oct-09 00:30N 29°48' W 092°04'3 5.6
2017-Oct-09 00:00N 29°47' W 092°07'3 5.4
2017-Oct-08 23:30N 29°47' W 092°10'2 4.0
2017-Oct-08 23:00N 29°47' W 092°12'2 3.4
2017-Oct-08 22:30N 29°48' W 092°14'2 3.8
2017-Oct-08 22:00N 29°49' W 092°16'2 4.9
2017-Oct-08 21:30N 29°50' W 092°18'2 3.2
2017-Oct-08 21:00N 29°51' W 092°20'1 0.1
2017-Oct-08 12:37N 29°51' W 092°21'1 5.2
2017-Oct-08 12:21N 29°50' W 092°19'1 4.2
2017-Oct-08 12:00N 29°50' W 092°18'2 3.8
2017-Oct-08 11:30N 29°49' W 092°16'3 5.2
2017-Oct-08 11:00N 29°48' W 092°13'1 1.9
2017-Oct-08 10:30N 29°47' W 092°12'2 3.1
2017-Oct-08 10:00N 29°47' W 092°11'2 4.2
2017-Oct-08 09:30N 29°47' W 092°08'3 6.1
2017-Oct-08 09:00N 29°48' W 092°05'  

Dump ship's entire track history